Hebron, New Hampshire
Current Conditions -  °F | °C
As of 11:55 AM on Friday 31 Oct 2014 (Local Time) from K1P1 Reporting Station
Scattered Clouds Scattered Clouds  
Wind Chill: 48°   Ceiling: Unl
Heat Index: 48°   Visibility: 10mi
Dew Point: 40°   Wind: 0mph
Humidity: 75%   Direction: NA
Pressure: 30.03"   Gusts: NA
Location:  43.69°N, 71.81°W
Report Text: K1P1 311555Z AUTO 00000KT 10SM SCT043 SCT050 09/05 A3003 RMK AO2 T00890046
Loading
Personal Weather Stations






























Interactive Weather Map
Tropical Storm Tracking
New forecast layout! Learn more

10-Day Weather Forecast

Advertisements
Track Severe Weather on mobile